sensor_id;sensor_type;location;lat;lon;timestamp;P1;durP1;ratioP1;P2;durP2;ratioP2
10957;SDS011;5531;42.570;23.676;2022-12-10T00:01:46;26.83;;;16.30;;
10957;SDS011;5531;42.570;23.676;2022-12-10T00:04:15;20.77;;;15.02;;
10957;SDS011;5531;42.570;23.676;2022-12-10T00:06:45;22.40;;;13.85;;
10957;SDS011;5531;42.570;23.676;2022-12-10T00:09:17;18.15;;;12.15;;
10957;SDS011;5531;42.570;23.676;2022-12-10T00:11:48;17.27;;;10.55;;
10957;SDS011;5531;42.570;23.676;2022-12-10T00:14:17;19.58;;;11.38;;
10957;SDS011;5531;42.570;23.676;2022-12-10T00:16:46;16.30;;;10.45;;
10957;SDS011;5531;42.570;23.676;2022-12-10T00:19:15;17.08;;;9.73;;
10957;SDS011;5531;42.570;23.676;2022-12-10T00:21:45;16.45;;;9.70;;
10957;SDS011;5531;42.570;23.676;2022-12-10T00:24:16;14.63;;;9.57;;
10957;SDS011;5531;42.570;23.676;2022-12-10T00:26:45;16.13;;;9.25;;
10957;SDS011;5531;42.570;23.676;2022-12-10T00:29:14;14.60;;;8.88;;
10957;SDS011;5531;42.570;23.676;2022-12-10T00:31:43;15.00;;;9.05;;
10957;SDS011;5531;42.570;23.676;2022-12-10T00:34:12;14.73;;;9.30;;
10957;SDS011;5531;42.570;23.676;2022-12-10T00:36:42;15.13;;;8.32;;
10957;SDS011;5531;42.570;23.676;2022-12-10T00:39:14;15.48;;;8.73;;
10957;SDS011;5531;42.570;23.676;2022-12-10T00:41:47;12.50;;;9.23;;
10957;SDS011;5531;42.570;23.676;2022-12-10T00:44:17;14.15;;;9.52;;
10957;SDS011;5531;42.570;23.676;2022-12-10T00:46:46;14.32;;;9.68;;
10957;SDS011;5531;42.570;23.676;2022-12-10T00:49:15;13.80;;;10.10;;
10957;SDS011;5531;42.570;23.676;2022-12-10T00:51:48;15.77;;;9.98;;
10957;SDS011;5531;42.570;23.676;2022-12-10T00:54:19;18.13;;;10.02;;
10957;SDS011;5531;42.570;23.676;2022-12-10T00:56:49;15.85;;;10.40;;
10957;SDS011;5531;42.570;23.676;2022-12-10T00:59:18;15.38;;;9.90;;
10957;SDS011;5531;42.570;23.676;2022-12-10T01:01:47;13.02;;;8.85;;
10957;SDS011;5531;42.570;23.676;2022-12-10T01:04:16;14.55;;;9.63;;
10957;SDS011;5531;42.570;23.676;2022-12-10T01:06:46;17.52;;;9.68;;
10957;SDS011;5531;42.570;23.676;2022-12-10T01:09:20;14.05;;;8.88;;
10957;SDS011;5531;42.570;23.676;2022-12-10T01:11:51;12.60;;;8.32;;
10957;SDS011;5531;42.570;23.676;2022-12-10T01:14:22;11.52;;;8.35;;
10957;SDS011;5531;42.570;23.676;2022-12-10T01:16:54;17.40;;;9.27;;
10957;SDS011;5531;42.570;23.676;2022-12-10T01:19:25;14.15;;;8.85;;
10957;SDS011;5531;42.570;23.676;2022-12-10T01:21:54;14.32;;;8.65;;
10957;SDS011;5531;42.570;23.676;2022-12-10T01:24:27;13.93;;;8.93;;
10957;SDS011;5531;42.570;23.676;2022-12-10T01:26:57;16.70;;;8.10;;
10957;SDS011;5531;42.570;23.676;2022-12-10T01:29:26;14.10;;;8.27;;
10957;SDS011;5531;42.570;23.676;2022-12-10T01:31:56;14.23;;;8.38;;
10957;SDS011;5531;42.570;23.676;2022-12-10T01:34:26;15.23;;;7.82;;
10957;SDS011;5531;42.570;23.676;2022-12-10T01:36:55;12.43;;;7.82;;
10957;SDS011;5531;42.570;23.676;2022-12-10T01:39:27;12.73;;;7.72;;
10957;SDS011;5531;42.570;23.676;2022-12-10T01:41:56;11.73;;;7.90;;
10957;SDS011;5531;42.570;23.676;2022-12-10T01:47:27;11.00;;;8.18;;
10957;SDS011;5531;42.570;23.676;2022-12-10T01:49:56;12.32;;;7.85;;
10957;SDS011;5531;42.570;23.676;2022-12-10T01:52:27;11.75;;;7.80;;
10957;SDS011;5531;42.570;23.676;2022-12-10T01:54:59;14.25;;;7.90;;
10957;SDS011;5531;42.570;23.676;2022-12-10T01:57:28;14.02;;;8.20;;
10957;SDS011;5531;42.570;23.676;2022-12-10T01:59:57;14.75;;;8.38;;
10957;SDS011;5531;42.570;23.676;2022-12-10T02:02:33;11.77;;;8.65;;
10957;SDS011;5531;42.570;23.676;2022-12-10T02:05:12;14.95;;;7.97;;
10957;SDS011;5531;42.570;23.676;2022-12-10T02:07:57;10.60;;;7.15;;
10957;SDS011;5531;42.570;23.676;2022-12-10T02:10:43;15.77;;;7.47;;
10957;SDS011;5531;42.570;23.676;2022-12-10T02:13:26;11.05;;;7.57;;
10957;SDS011;5531;42.570;23.676;2022-12-10T02:15:59;13.40;;;7.60;;
10957;SDS011;5531;42.570;23.676;2022-12-10T02:18:35;18.23;;;8.52;;
10957;SDS011;5531;42.570;23.676;2022-12-10T02:21:07;17.60;;;8.88;;
10957;SDS011;5531;42.570;23.676;2022-12-10T02:23:41;13.25;;;8.40;;
10957;SDS011;5531;42.570;23.676;2022-12-10T02:26:19;14.60;;;8.65;;
10957;SDS011;5531;42.570;23.676;2022-12-10T02:28:53;14.77;;;7.85;;
10957;SDS011;5531;42.570;23.676;2022-12-10T02:31:35;14.15;;;7.20;;
10957;SDS011;5531;42.570;23.676;2022-12-10T02:34:05;15.70;;;7.80;;
10957;SDS011;5531;42.570;23.676;2022-12-10T02:36:37;14.73;;;8.02;;
10957;SDS011;5531;42.570;23.676;2022-12-10T02:39:11;14.05;;;8.32;;
10957;SDS011;5531;42.570;23.676;2022-12-10T02:41:44;14.10;;;7.68;;
10957;SDS011;5531;42.570;23.676;2022-12-10T02:44:19;16.42;;;9.35;;
10957;SDS011;5531;42.570;23.676;2022-12-10T02:46:51;14.05;;;9.02;;
10957;SDS011;5531;42.570;23.676;2022-12-10T02:49:21;13.82;;;8.07;;
10957;SDS011;5531;42.570;23.676;2022-12-10T02:51:52;14.38;;;8.48;;
10957;SDS011;5531;42.570;23.676;2022-12-10T02:54:35;12.65;;;7.63;;
10957;SDS011;5531;42.570;23.676;2022-12-10T02:57:15;17.27;;;8.63;;
10957;SDS011;5531;42.570;23.676;2022-12-10T02:59:59;14.07;;;7.80;;
10957;SDS011;5531;42.570;23.676;2022-12-10T03:02:36;13.55;;;8.80;;
10957;SDS011;5531;42.570;23.676;2022-12-10T03:05:13;13.40;;;8.85;;
10957;SDS011;5531;42.570;23.676;2022-12-10T03:07:46;12.05;;;8.50;;
10957;SDS011;5531;42.570;23.676;2022-12-10T03:10:22;13.52;;;8.65;;
10957;SDS011;5531;42.570;23.676;2022-12-10T03:12:55;12.52;;;9.30;;
10957;SDS011;5531;42.570;23.676;2022-12-10T03:15:30;14.20;;;9.65;;
10957;SDS011;5531;42.570;23.676;2022-12-10T03:18:04;15.30;;;9.40;;
10957;SDS011;5531;42.570;23.676;2022-12-10T03:20:37;11.52;;;9.50;;
10957;SDS011;5531;42.570;23.676;2022-12-10T03:23:11;15.45;;;9.45;;
10957;SDS011;5531;42.570;23.676;2022-12-10T03:25:43;14.02;;;9.40;;
10957;SDS011;5531;42.570;23.676;2022-12-10T03:28:12;17.58;;;9.25;;
10957;SDS011;5531;42.570;23.676;2022-12-10T03:30:45;14.82;;;8.57;;
10957;SDS011;5531;42.570;23.676;2022-12-10T03:33:15;13.13;;;9.45;;
10957;SDS011;5531;42.570;23.676;2022-12-10T03:35:45;11.88;;;8.75;;
10957;SDS011;5531;42.570;23.676;2022-12-10T03:38:14;12.77;;;8.93;;
10957;SDS011;5531;42.570;23.676;2022-12-10T03:40:44;16.42;;;9.02;;
10957;SDS011;5531;42.570;23.676;2022-12-10T03:43:13;15.45;;;8.55;;
10957;SDS011;5531;42.570;23.676;2022-12-10T03:45:44;13.05;;;8.00;;
10957;SDS011;5531;42.570;23.676;2022-12-10T03:48:13;16.02;;;9.43;;
10957;SDS011;5531;42.570;23.676;2022-12-10T03:50:43;14.75;;;9.55;;
10957;SDS011;5531;42.570;23.676;2022-12-10T03:53:12;14.65;;;9.32;;
10957;SDS011;5531;42.570;23.676;2022-12-10T03:55:41;14.45;;;9.77;;
10957;SDS011;5531;42.570;23.676;2022-12-10T03:58:10;15.13;;;9.88;;
10957;SDS011;5531;42.570;23.676;2022-12-10T04:00:39;14.45;;;9.38;;
10957;SDS011;5531;42.570;23.676;2022-12-10T04:03:11;13.57;;;9.40;;
10957;SDS011;5531;42.570;23.676;2022-12-10T04:05:40;12.75;;;8.80;;
10957;SDS011;5531;42.570;23.676;2022-12-10T04:08:09;12.63;;;8.35;;
10957;SDS011;5531;42.570;23.676;2022-12-10T04:10:38;11.57;;;8.23;;
10957;SDS011;5531;42.570;23.676;2022-12-10T04:13:07;13.88;;;8.20;;
10957;SDS011;5531;42.570;23.676;2022-12-10T04:15:48;16.23;;;9.32;;
10957;SDS011;5531;42.570;23.676;2022-12-10T04:18:32;15.00;;;9.63;;
10957;SDS011;5531;42.570;23.676;2022-12-10T04:21:01;12.98;;;9.55;;
10957;SDS011;5531;42.570;23.676;2022-12-10T04:23:42;15.18;;;8.50;;
10957;SDS011;5531;42.570;23.676;2022-12-10T04:26:24;15.00;;;8.85;;
10957;SDS011;5531;42.570;23.676;2022-12-10T04:29:05;11.90;;;8.02;;
10957;SDS011;5531;42.570;23.676;2022-12-10T04:31:35;14.32;;;7.50;;
10957;SDS011;5531;42.570;23.676;2022-12-10T04:34:07;13.45;;;6.90;;
10957;SDS011;5531;42.570;23.676;2022-12-10T04:36:36;11.10;;;6.65;;
10957;SDS011;5531;42.570;23.676;2022-12-10T04:39:05;8.73;;;6.65;;
10957;SDS011;5531;42.570;23.676;2022-12-10T04:41:37;11.52;;;6.80;;
10957;SDS011;5531;42.570;23.676;2022-12-10T04:44:07;10.57;;;6.75;;
10957;SDS011;5531;42.570;23.676;2022-12-10T04:46:36;8.27;;;6.03;;
10957;SDS011;5531;42.570;23.676;2022-12-10T04:49:08;12.40;;;6.50;;
10957;SDS011;5531;42.570;23.676;2022-12-10T04:51:37;11.52;;;7.60;;
10957;SDS011;5531;42.570;23.676;2022-12-10T04:54:07;16.48;;;11.57;;
10957;SDS011;5531;42.570;23.676;2022-12-10T04:56:36;12.77;;;8.82;;
10957;SDS011;5531;42.570;23.676;2022-12-10T04:59:05;13.95;;;8.90;;
10957;SDS011;5531;42.570;23.676;2022-12-10T05:01:35;15.18;;;8.85;;
10957;SDS011;5531;42.570;23.676;2022-12-10T05:04:05;14.38;;;8.88;;
10957;SDS011;5531;42.570;23.676;2022-12-10T05:06:39;14.13;;;7.93;;
10957;SDS011;5531;42.570;23.676;2022-12-10T05:09:09;12.40;;;8.20;;
10957;SDS011;5531;42.570;23.676;2022-12-10T05:11:39;12.73;;;7.45;;
10957;SDS011;5531;42.570;23.676;2022-12-10T05:14:10;14.90;;;7.95;;
10957;SDS011;5531;42.570;23.676;2022-12-10T05:16:39;13.13;;;7.88;;
10957;SDS011;5531;42.570;23.676;2022-12-10T05:19:12;14.07;;;8.18;;
10957;SDS011;5531;42.570;23.676;2022-12-10T05:21:41;14.10;;;9.48;;
10957;SDS011;5531;42.570;23.676;2022-12-10T05:24:22;18.77;;;10.82;;
10957;SDS011;5531;42.570;23.676;2022-12-10T05:26:51;15.48;;;10.02;;
10957;SDS011;5531;42.570;23.676;2022-12-10T05:29:20;14.52;;;9.88;;
10957;SDS011;5531;42.570;23.676;2022-12-10T05:31:49;17.40;;;10.18;;
10957;SDS011;5531;42.570;23.676;2022-12-10T05:34:21;13.88;;;11.15;;
10957;SDS011;5531;42.570;23.676;2022-12-10T05:36:50;18.90;;;12.82;;
10957;SDS011;5531;42.570;23.676;2022-12-10T05:39:19;18.88;;;13.18;;
10957;SDS011;5531;42.570;23.676;2022-12-10T05:41:48;20.40;;;13.85;;
10957;SDS011;5531;42.570;23.676;2022-12-10T05:44:17;18.23;;;13.13;;
10957;SDS011;5531;42.570;23.676;2022-12-10T05:46:46;18.15;;;12.43;;
10957;SDS011;5531;42.570;23.676;2022-12-10T05:49:15;21.17;;;13.90;;
10957;SDS011;5531;42.570;23.676;2022-12-10T05:51:47;18.55;;;13.63;;
10957;SDS011;5531;42.570;23.676;2022-12-10T05:54:16;23.23;;;13.95;;
10957;SDS011;5531;42.570;23.676;2022-12-10T05:56:45;20.23;;;13.70;;
10957;SDS011;5531;42.570;23.676;2022-12-10T05:59:14;19.67;;;13.80;;
10957;SDS011;5531;42.570;23.676;2022-12-10T06:01:44;20.08;;;13.93;;
10957;SDS011;5531;42.570;23.676;2022-12-10T06:04:13;26.67;;;18.73;;
10957;SDS011;5531;42.570;23.676;2022-12-10T06:06:47;20.92;;;14.38;;
10957;SDS011;5531;42.570;23.676;2022-12-10T06:09:16;20.98;;;13.88;;
10957;SDS011;5531;42.570;23.676;2022-12-10T06:11:45;26.17;;;16.00;;
10957;SDS011;5531;42.570;23.676;2022-12-10T06:14:14;27.45;;;20.02;;
10957;SDS011;5531;42.570;23.676;2022-12-10T06:16:43;20.10;;;14.48;;
10957;SDS011;5531;42.570;23.676;2022-12-10T06:19:12;21.50;;;14.68;;
10957;SDS011;5531;42.570;23.676;2022-12-10T06:21:42;26.02;;;13.60;;
10957;SDS011;5531;42.570;23.676;2022-12-10T06:24:13;25.65;;;16.33;;
10957;SDS011;5531;42.570;23.676;2022-12-10T06:26:42;22.10;;;15.13;;
10957;SDS011;5531;42.570;23.676;2022-12-10T06:29:11;23.83;;;18.20;;
10957;SDS011;5531;42.570;23.676;2022-12-10T06:31:40;27.33;;;18.27;;
10957;SDS011;5531;42.570;23.676;2022-12-10T06:34:09;35.38;;;24.38;;
10957;SDS011;5531;42.570;23.676;2022-12-10T06:36:38;30.20;;;19.23;;
10957;SDS011;5531;42.570;23.676;2022-12-10T06:39:07;26.42;;;18.08;;
10957;SDS011;5531;42.570;23.676;2022-12-10T06:41:39;23.88;;;16.98;;
10957;SDS011;5531;42.570;23.676;2022-12-10T06:44:10;22.48;;;15.57;;
10957;SDS011;5531;42.570;23.676;2022-12-10T06:46:40;22.65;;;14.57;;
10957;SDS011;5531;42.570;23.676;2022-12-10T06:49:09;26.70;;;18.75;;
10957;SDS011;5531;42.570;23.676;2022-12-10T06:51:38;19.67;;;15.32;;
10957;SDS011;5531;42.570;23.676;2022-12-10T06:54:07;22.05;;;15.52;;
10957;SDS011;5531;42.570;23.676;2022-12-10T06:56:39;24.73;;;17.25;;
10957;SDS011;5531;42.570;23.676;2022-12-10T06:59:08;21.88;;;16.45;;
10957;SDS011;5531;42.570;23.676;2022-12-10T07:01:37;25.73;;;15.73;;
10957;SDS011;5531;42.570;23.676;2022-12-10T07:04:07;21.55;;;15.20;;
10957;SDS011;5531;42.570;23.676;2022-12-10T07:06:37;25.50;;;14.27;;
10957;SDS011;5531;42.570;23.676;2022-12-10T07:09:06;18.38;;;12.90;;
10957;SDS011;5531;42.570;23.676;2022-12-10T07:11:35;19.95;;;11.85;;
10957;SDS011;5531;42.570;23.676;2022-12-10T07:14:07;19.60;;;11.90;;
10957;SDS011;5531;42.570;23.676;2022-12-10T07:16:42;18.73;;;11.60;;
10957;SDS011;5531;42.570;23.676;2022-12-10T07:19:11;20.13;;;11.40;;
10957;SDS011;5531;42.570;23.676;2022-12-10T07:21:40;46.25;;;40.67;;
10957;SDS011;5531;42.570;23.676;2022-12-10T07:24:12;42.22;;;37.78;;
10957;SDS011;5531;42.570;23.676;2022-12-10T07:26:43;61.08;;;55.08;;
10957;SDS011;5531;42.570;23.676;2022-12-10T07:29:16;23.23;;;17.92;;
10957;SDS011;5531;42.570;23.676;2022-12-10T07:31:47;23.13;;;15.65;;
10957;SDS011;5531;42.570;23.676;2022-12-10T07:34:16;24.38;;;16.20;;
10957;SDS011;5531;42.570;23.676;2022-12-10T07:36:46;21.40;;;15.32;;
10957;SDS011;5531;42.570;23.676;2022-12-10T07:39:15;21.70;;;15.35;;
10957;SDS011;5531;42.570;23.676;2022-12-10T07:41:46;25.08;;;13.88;;
10957;SDS011;5531;42.570;23.676;2022-12-10T07:44:19;21.40;;;15.13;;
10957;SDS011;5531;42.570;23.676;2022-12-10T07:47:00;23.33;;;16.00;;
10957;SDS011;5531;42.570;23.676;2022-12-10T07:49:34;23.65;;;15.60;;
10957;SDS011;5531;42.570;23.676;2022-12-10T07:52:03;21.95;;;16.40;;
10957;SDS011;5531;42.570;23.676;2022-12-10T07:54:32;24.88;;;15.90;;
10957;SDS011;5531;42.570;23.676;2022-12-10T07:57:01;25.55;;;16.58;;
10957;SDS011;5531;42.570;23.676;2022-12-10T07:59:33;25.27;;;17.08;;
10957;SDS011;5531;42.570;23.676;2022-12-10T08:02:02;25.75;;;16.63;;
10957;SDS011;5531;42.570;23.676;2022-12-10T08:04:31;19.88;;;13.75;;
10957;SDS011;5531;42.570;23.676;2022-12-10T08:07:00;20.08;;;12.73;;
10957;SDS011;5531;42.570;23.676;2022-12-10T08:09:29;19.90;;;14.73;;
10957;SDS011;5531;42.570;23.676;2022-12-10T08:11:58;25.45;;;17.92;;
10957;SDS011;5531;42.570;23.676;2022-12-10T08:14:27;24.50;;;17.77;;
10957;SDS011;5531;42.570;23.676;2022-12-10T08:16:59;28.35;;;17.88;;
10957;SDS011;5531;42.570;23.676;2022-12-10T08:19:28;26.48;;;18.38;;
10957;SDS011;5531;42.570;23.676;2022-12-10T08:21:57;24.33;;;17.88;;
10957;SDS011;5531;42.570;23.676;2022-12-10T08:24:26;19.90;;;15.02;;
10957;SDS011;5531;42.570;23.676;2022-12-10T08:26:55;15.80;;;12.05;;
10957;SDS011;5531;42.570;23.676;2022-12-10T08:29:24;17.20;;;11.18;;
10957;SDS011;5531;42.570;23.676;2022-12-10T08:31:53;14.98;;;9.50;;
10957;SDS011;5531;42.570;23.676;2022-12-10T08:34:25;13.50;;;9.90;;
10957;SDS011;5531;42.570;23.676;2022-12-10T08:36:54;15.40;;;11.35;;
10957;SDS011;5531;42.570;23.676;2022-12-10T08:39:23;26.42;;;22.02;;
10957;SDS011;5531;42.570;23.676;2022-12-10T08:41:52;24.88;;;19.00;;
10957;SDS011;5531;42.570;23.676;2022-12-10T08:44:21;25.35;;;17.73;;
10957;SDS011;5531;42.570;23.676;2022-12-10T08:46:50;26.70;;;19.17;;
10957;SDS011;5531;42.570;23.676;2022-12-10T08:49:19;23.92;;;20.35;;
10957;SDS011;5531;42.570;23.676;2022-12-10T08:51:51;24.20;;;18.15;;
10957;SDS011;5531;42.570;23.676;2022-12-10T08:54:20;24.13;;;18.27;;
10957;SDS011;5531;42.570;23.676;2022-12-10T08:56:49;29.02;;;20.17;;
10957;SDS011;5531;42.570;23.676;2022-12-10T08:59:18;28.08;;;20.38;;
10957;SDS011;5531;42.570;23.676;2022-12-10T09:01:47;26.52;;;19.55;;
10957;SDS011;5531;42.570;23.676;2022-12-10T09:04:16;23.92;;;19.35;;
10957;SDS011;5531;42.570;23.676;2022-12-10T09:06:45;21.55;;;16.05;;
10957;SDS011;5531;42.570;23.676;2022-12-10T09:09:18;20.02;;;14.00;;
10957;SDS011;5531;42.570;23.676;2022-12-10T09:11:47;17.17;;;11.85;;
10957;SDS011;5531;42.570;23.676;2022-12-10T09:14:16;14.27;;;9.98;;
10957;SDS011;5531;42.570;23.676;2022-12-10T09:16:45;13.75;;;11.00;;
10957;SDS011;5531;42.570;23.676;2022-12-10T09:19:14;16.92;;;10.63;;
10957;SDS011;5531;42.570;23.676;2022-12-10T09:21:43;12.57;;;9.68;;
10957;SDS011;5531;42.570;23.676;2022-12-10T09:24:12;11.27;;;9.20;;
10957;SDS011;5531;42.570;23.676;2022-12-10T09:26:44;15.88;;;11.10;;
10957;SDS011;5531;42.570;23.676;2022-12-10T09:29:13;14.52;;;11.77;;
10957;SDS011;5531;42.570;23.676;2022-12-10T09:31:42;16.65;;;12.48;;
10957;SDS011;5531;42.570;23.676;2022-12-10T09:34:11;17.30;;;13.65;;
10957;SDS011;5531;42.570;23.676;2022-12-10T09:36:40;23.08;;;15.07;;
10957;SDS011;5531;42.570;23.676;2022-12-10T09:39:09;24.67;;;18.17;;
10957;SDS011;5531;42.570;23.676;2022-12-10T09:41:53;24.92;;;18.80;;
10957;SDS011;5531;42.570;23.676;2022-12-10T09:44:35;22.30;;;16.73;;
10957;SDS011;5531;42.570;23.676;2022-12-10T09:47:14;19.35;;;13.38;;
10957;SDS011;5531;42.570;23.676;2022-12-10T09:49:47;20.45;;;14.30;;
10957;SDS011;5531;42.570;23.676;2022-12-10T09:52:24;20.08;;;16.23;;
10957;SDS011;5531;42.570;23.676;2022-12-10T09:54:55;21.38;;;15.30;;
10957;SDS011;5531;42.570;23.676;2022-12-10T09:57:31;19.00;;;12.63;;
10957;SDS011;5531;42.570;23.676;2022-12-10T10:00:04;14.82;;;11.25;;
10957;SDS011;5531;42.570;23.676;2022-12-10T10:02:44;18.65;;;11.57;;
10957;SDS011;5531;42.570;23.676;2022-12-10T10:05:15;16.90;;;10.75;;
10957;SDS011;5531;42.570;23.676;2022-12-10T10:07:49;15.45;;;10.50;;
10957;SDS011;5531;42.570;23.676;2022-12-10T10:10:22;14.80;;;9.70;;
10957;SDS011;5531;42.570;23.676;2022-12-10T10:13:00;11.80;;;9.77;;
10957;SDS011;5531;42.570;23.676;2022-12-10T10:15:41;20.85;;;17.40;;
10957;SDS011;5531;42.570;23.676;2022-12-10T10:18:14;23.75;;;20.55;;
10957;SDS011;5531;42.570;23.676;2022-12-10T10:20:51;22.88;;;20.05;;
10957;SDS011;5531;42.570;23.676;2022-12-10T10:23:20;24.42;;;19.63;;
10957;SDS011;5531;42.570;23.676;2022-12-10T10:25:49;19.98;;;16.30;;
10957;SDS011;5531;42.570;23.676;2022-12-10T10:28:22;14.77;;;13.25;;
10957;SDS011;5531;42.570;23.676;2022-12-10T10:30:51;13.57;;;10.75;;
10957;SDS011;5531;42.570;23.676;2022-12-10T10:33:22;11.80;;;9.70;;
10957;SDS011;5531;42.570;23.676;2022-12-10T10:35:52;14.00;;;11.43;;
10957;SDS011;5531;42.570;23.676;2022-12-10T10:38:25;14.45;;;11.52;;
10957;SDS011;5531;42.570;23.676;2022-12-10T10:40:57;12.15;;;8.48;;
10957;SDS011;5531;42.570;23.676;2022-12-10T10:43:34;9.38;;;7.25;;
10957;SDS011;5531;42.570;23.676;2022-12-10T10:46:11;10.65;;;8.13;;
10957;SDS011;5531;42.570;23.676;2022-12-10T10:48:41;10.45;;;7.25;;
10957;SDS011;5531;42.570;23.676;2022-12-10T10:51:15;8.98;;;6.60;;
10957;SDS011;5531;42.570;23.676;2022-12-10T10:53:49;9.98;;;7.10;;
10957;SDS011;5531;42.570;23.676;2022-12-10T10:56:20;8.45;;;6.65;;
10957;SDS011;5531;42.570;23.676;2022-12-10T10:58:56;6.80;;;6.10;;
10957;SDS011;5531;42.570;23.676;2022-12-10T11:01:43;8.75;;;5.45;;
10957;SDS011;5531;42.570;23.676;2022-12-10T11:04:14;8.75;;;5.50;;
10957;SDS011;5531;42.570;23.676;2022-12-10T11:06:46;8.60;;;5.13;;
10957;SDS011;5531;42.570;23.676;2022-12-10T11:09:20;8.63;;;5.15;;
10957;SDS011;5531;42.570;23.676;2022-12-10T11:11:57;7.32;;;4.28;;
10957;SDS011;5531;42.570;23.676;2022-12-10T11:14:32;6.75;;;4.55;;
10957;SDS011;5531;42.570;23.676;2022-12-10T11:17:12;8.05;;;4.57;;
10957;SDS011;5531;42.570;23.676;2022-12-10T11:19:53;8.95;;;4.60;;
10957;SDS011;5531;42.570;23.676;2022-12-10T11:22:25;6.35;;;4.38;;
10957;SDS011;5531;42.570;23.676;2022-12-10T11:24:56;27.48;;;18.40;;
10957;SDS011;5531;42.570;23.676;2022-12-10T11:27:42;23.50;;;15.55;;
10957;SDS011;5531;42.570;23.676;2022-12-10T11:30:22;116.82;;;70.25;;
10957;SDS011;5531;42.570;23.676;2022-12-10T11:32:59;136.88;;;111.43;;
10957;SDS011;5531;42.570;23.676;2022-12-10T11:35:46;39.53;;;35.35;;
10957;SDS011;5531;42.570;23.676;2022-12-10T11:38:22;72.85;;;64.90;;
10957;SDS011;5531;42.570;23.676;2022-12-10T11:40:56;6.38;;;5.43;;
10957;SDS011;5531;42.570;23.676;2022-12-10T11:43:40;11.98;;;9.57;;
10957;SDS011;5531;42.570;23.676;2022-12-10T11:46:23;12.68;;;6.78;;
10957;SDS011;5531;42.570;23.676;2022-12-10T11:49:16;47.15;;;34.28;;
10957;SDS011;5531;42.570;23.676;2022-12-10T11:51:54;9.00;;;5.72;;
10957;SDS011;5531;42.570;23.676;2022-12-10T11:54:40;12.75;;;9.02;;
10957;SDS011;5531;42.570;23.676;2022-12-10T11:57:23;116.57;;;105.10;;
10957;SDS011;5531;42.570;23.676;2022-12-10T12:00:03;92.57;;;83.22;;
10957;SDS011;5531;42.570;23.676;2022-12-10T12:02:51;59.20;;;42.92;;
10957;SDS011;5531;42.570;23.676;2022-12-10T12:05:36;13.40;;;9.77;;
10957;SDS011;5531;42.570;23.676;2022-12-10T12:08:18;8.23;;;6.15;;
10957;SDS011;5531;42.570;23.676;2022-12-10T12:10:56;10.57;;;6.25;;
10957;SDS011;5531;42.570;23.676;2022-12-10T12:13:38;7.72;;;5.78;;
10957;SDS011;5531;42.570;23.676;2022-12-10T12:16:13;10.32;;;5.75;;
10957;SDS011;5531;42.570;23.676;2022-12-10T12:18:49;8.98;;;5.68;;
10957;SDS011;5531;42.570;23.676;2022-12-10T12:21:23;8.20;;;5.70;;
10957;SDS011;5531;42.570;23.676;2022-12-10T12:23:55;10.18;;;5.63;;
10957;SDS011;5531;42.570;23.676;2022-12-10T12:26:28;9.82;;;5.07;;
10957;SDS011;5531;42.570;23.676;2022-12-10T12:29:02;6.85;;;4.72;;
10957;SDS011;5531;42.570;23.676;2022-12-10T12:31:42;8.10;;;5.30;;
10957;SDS011;5531;42.570;23.676;2022-12-10T12:34:18;8.57;;;5.10;;
10957;SDS011;5531;42.570;23.676;2022-12-10T12:36:53;11.43;;;5.22;;
10957;SDS011;5531;42.570;23.676;2022-12-10T12:39:23;7.18;;;5.50;;
10957;SDS011;5531;42.570;23.676;2022-12-10T12:42:02;8.27;;;5.68;;
10957;SDS011;5531;42.570;23.676;2022-12-10T12:44:44;8.95;;;5.13;;
10957;SDS011;5531;42.570;23.676;2022-12-10T12:47:31;9.85;;;5.63;;
10957;SDS011;5531;42.570;23.676;2022-12-10T12:50:16;9.73;;;6.75;;
10957;SDS011;5531;42.570;23.676;2022-12-10T12:52:55;11.73;;;6.72;;
10957;SDS011;5531;42.570;23.676;2022-12-10T12:55:28;9.65;;;6.38;;
10957;SDS011;5531;42.570;23.676;2022-12-10T12:58:09;11.07;;;7.30;;
10957;SDS011;5531;42.570;23.676;2022-12-10T13:00:45;8.90;;;6.95;;
10957;SDS011;5531;42.570;23.676;2022-12-10T13:03:19;11.20;;;7.20;;
10957;SDS011;5531;42.570;23.676;2022-12-10T13:08:57;12.68;;;7.32;;
10957;SDS011;5531;42.570;23.676;2022-12-10T13:11:44;13.43;;;7.97;;
10957;SDS011;5531;42.570;23.676;2022-12-10T13:14:16;11.13;;;7.25;;
10957;SDS011;5531;42.570;23.676;2022-12-10T13:22:57;9.70;;;6.45;;
10957;SDS011;5531;42.570;23.676;2022-12-10T13:25:40;10.27;;;5.82;;
10957;SDS011;5531;42.570;23.676;2022-12-10T13:28:27;10.15;;;6.20;;
10957;SDS011;5531;42.570;23.676;2022-12-10T13:31:18;11.68;;;6.82;;
10957;SDS011;5531;42.570;23.676;2022-12-10T13:42:57;9.15;;;6.65;;
10957;SDS011;5531;42.570;23.676;2022-12-10T13:45:39;9.20;;;7.00;;
10957;SDS011;5531;42.570;23.676;2022-12-10T13:48:22;8.80;;;6.57;;
10957;SDS011;5531;42.570;23.676;2022-12-10T13:53:58;8.48;;;5.70;;
10957;SDS011;5531;42.570;23.676;2022-12-10T13:56:40;8.50;;;5.65;;
10957;SDS011;5531;42.570;23.676;2022-12-10T13:59:17;10.13;;;6.13;;
10957;SDS011;5531;42.570;23.676;2022-12-10T14:01:59;8.48;;;5.57;;
10957;SDS011;5531;42.570;23.676;2022-12-10T14:05:01;8.73;;;5.25;;
10957;SDS011;5531;42.570;23.676;2022-12-10T14:07:42;10.10;;;5.75;;
10957;SDS011;5531;42.570;23.676;2022-12-10T14:10:16;11.75;;;6.50;;
10957;SDS011;5531;42.570;23.676;2022-12-10T14:12:52;9.15;;;6.15;;
10957;SDS011;5531;42.570;23.676;2022-12-10T14:15:23;8.38;;;5.57;;
10957;SDS011;5531;42.570;23.676;2022-12-10T14:17:54;8.35;;;5.63;;
10957;SDS011;5531;42.570;23.676;2022-12-10T14:20:43;8.05;;;5.00;;
10957;SDS011;5531;42.570;23.676;2022-12-10T14:23:22;10.20;;;5.10;;
10957;SDS011;5531;42.570;23.676;2022-12-10T14:26:04;8.35;;;5.00;;
10957;SDS011;5531;42.570;23.676;2022-12-10T14:28:40;9.48;;;4.97;;
10957;SDS011;5531;42.570;23.676;2022-12-10T14:31:12;8.50;;;4.68;;
10957;SDS011;5531;42.570;23.676;2022-12-10T14:33:44;7.72;;;4.82;;
10957;SDS011;5531;42.570;23.676;2022-12-10T14:36:17;6.75;;;4.60;;
10957;SDS011;5531;42.570;23.676;2022-12-10T14:38:52;6.55;;;4.50;;
10957;SDS011;5531;42.570;23.676;2022-12-10T14:41:22;11.85;;;4.97;;
10957;SDS011;5531;42.570;23.676;2022-12-10T14:43:55;6.53;;;5.03;;
10957;SDS011;5531;42.570;23.676;2022-12-10T14:46:30;7.80;;;4.68;;
10957;SDS011;5531;42.570;23.676;2022-12-10T14:49:00;9.75;;;4.93;;
10957;SDS011;5531;42.570;23.676;2022-12-10T14:51:31;7.18;;;4.75;;
10957;SDS011;5531;42.570;23.676;2022-12-10T14:54:01;7.38;;;4.90;;
10957;SDS011;5531;42.570;23.676;2022-12-10T14:56:32;7.45;;;5.30;;
10957;SDS011;5531;42.570;23.676;2022-12-10T14:59:07;9.20;;;4.82;;
10957;SDS011;5531;42.570;23.676;2022-12-10T15:01:43;7.72;;;5.15;;
10957;SDS011;5531;42.570;23.676;2022-12-10T15:04:16;8.93;;;5.80;;
10957;SDS011;5531;42.570;23.676;2022-12-10T15:06:47;8.77;;;5.15;;
10957;SDS011;5531;42.570;23.676;2022-12-10T15:09:20;8.07;;;4.72;;
10957;SDS011;5531;42.570;23.676;2022-12-10T15:11:53;9.50;;;5.40;;
10957;SDS011;5531;42.570;23.676;2022-12-10T15:14:26;10.93;;;6.07;;
10957;SDS011;5531;42.570;23.676;2022-12-10T15:16:57;9.93;;;6.20;;
10957;SDS011;5531;42.570;23.676;2022-12-10T15:19:30;7.85;;;5.88;;
10957;SDS011;5531;42.570;23.676;2022-12-10T15:22:02;7.68;;;5.00;;
10957;SDS011;5531;42.570;23.676;2022-12-10T15:24:46;7.45;;;4.45;;
10957;SDS011;5531;42.570;23.676;2022-12-10T15:27:15;6.15;;;4.82;;
10957;SDS011;5531;42.570;23.676;2022-12-10T15:29:49;8.10;;;4.47;;